Time;durP1;ratioP1;P1;durP2;ratioP2;P2;SDS_P1;SDS_P2;PMS_P1;PMS_P2;Temp;Humidity;BMP_temperature;BMP_pressure;BME280_temperature;BME280_humidity;BME280_pressure;Samples;Min_cycle;Max_cycle;Signal;HPM_P1;HPM_P2
2024/02/24 00:02:19;;;;;;;0.50;0.50;;;;;;;3.03;100.00;97354.06;5035214;28;20107;-59
2024/02/24 00:04:46;;;;;;;0.52;0.52;;;;;;;3.14;100.00;97349.72;5036890;28;20658;-59
2024/02/24 00:07:13;;;;;;;0.50;0.50;;;;;;;3.17;100.00;97359.81;5027627;28;20119;-59
2024/02/24 00:09:40;;;;;;;0.40;0.40;;;;;;;3.20;100.00;97344.28;5030725;28;20120;-59
2024/02/24 00:12:08;;;;;;;0.43;0.43;;;;;;;3.16;100.00;97348.44;5033653;28;20122;-59
2024/02/24 00:14:36;;;;;;;0.50;0.50;;;;;;;3.16;100.00;97348.44;5032315;28;20054;-59
2024/02/24 00:17:03;;;;;;;0.50;0.50;;;;;;;3.06;100.00;97348.28;5028307;28;20043;-59
2024/02/24 00:19:30;;;;;;;0.50;0.50;;;;;;;3.07;100.00;97349.91;5033126;28;20077;-59
2024/02/24 00:21:58;;;;;;;0.40;0.40;;;;;;;2.98;100.00;97340.72;5035535;28;20087;-59
2024/02/24 00:24:25;;;;;;;0.50;0.50;;;;;;;2.99;100.00;97343.13;5031464;28;20049;-61
2024/02/24 00:26:52;;;;;;;0.60;0.60;;;;;;;3.01;100.00;97334.97;5027773;28;20607;-59
2024/02/24 00:29:19;;;;;;;0.60;0.60;;;;;;;2.97;100.00;97339.13;5033652;28;20124;-59
2024/02/24 00:31:47;;;;;;;0.50;0.50;;;;;;;2.95;100.00;97346.50;5037734;28;20125;-59
2024/02/24 00:34:14;;;;;;;0.70;0.70;;;;;;;2.89;100.00;97342.16;5029856;28;20859;-59
2024/02/24 00:36:41;;;;;;;0.60;0.60;;;;;;;2.78;100.00;97344.63;5032508;28;20052;-59
2024/02/24 00:39:07;;;;;;;0.45;0.45;;;;;;;2.76;100.00;97344.06;5030582;28;20049;-59
2024/02/24 00:41:34;;;;;;;0.50;0.50;;;;;;;2.79;100.00;97346.22;5037264;28;20041;-59
2024/02/24 00:44:02;;;;;;;0.50;0.50;;;;;;;2.74;100.00;97343.50;5032001;28;20524;-60
2024/02/24 00:46:29;;;;;;;0.45;0.45;;;;;;;2.72;100.00;97344.78;5032277;28;20045;-59
2024/02/24 00:48:57;;;;;;;0.60;0.60;;;;;;;2.66;100.00;97346.53;5032794;28;20061;-59
2024/02/24 00:51:24;;;;;;;0.45;0.45;;;;;;;2.69;100.00;97337.31;5037745;28;20041;-59
2024/02/24 00:53:51;;;;;;;0.57;0.57;;;;;;;2.68;100.00;97341.00;5031658;28;20476;-59
2024/02/24 00:56:19;;;;;;;0.40;0.40;;;;;;;2.74;100.00;97335.56;5031481;28;20045;-59
2024/02/24 00:58:47;;;;;;;0.60;0.60;;;;;;;2.80;100.00;97339.13;5035871;28;20037;-59
2024/02/24 01:01:14;;;;;;;0.60;0.60;;;;;;;2.97;100.00;97332.00;5033121;28;20091;-59
2024/02/24 01:03:41;;;;;;;0.50;0.50;;;;;;;2.92;100.00;97333.72;5030707;28;20054;-59
2024/02/24 01:06:09;;;;;;;0.50;0.50;;;;;;;2.99;100.00;97324.59;5027205;28;20075;-59
2024/02/24 01:08:38;;;;;;;0.50;0.50;;;;;;;2.92;100.00;97329.28;5029180;28;20045;-59
2024/02/24 01:11:07;;;;;;;0.60;0.60;;;;;;;2.89;100.00;97331.56;5036579;28;20542;-59
2024/02/24 01:13:34;;;;;;;0.63;0.63;;;;;;;2.84;100.00;97331.50;5039536;28;20155;-59
2024/02/24 01:16:01;;;;;;;0.40;0.40;;;;;;;2.78;100.00;97325.31;5033995;28;20594;-59
2024/02/24 01:18:28;;;;;;;0.50;0.50;;;;;;;2.67;100.00;97328.81;5029785;28;20458;-59
2024/02/24 01:20:55;;;;;;;0.50;0.50;;;;;;;2.71;100.00;97325.47;5034350;28;20074;-59
2024/02/24 01:23:24;;;;;;;0.50;0.50;;;;;;;2.70;100.00;97336.28;5033701;28;20065;-60
2024/02/24 01:25:51;;;;;;;0.60;0.60;;;;;;;2.74;100.00;97329.47;5032624;28;20051;-59
2024/02/24 01:28:18;;;;;;;0.60;0.60;;;;;;;2.69;100.00;97327.53;5031600;28;20124;-59
2024/02/24 01:30:45;;;;;;;0.60;0.60;;;;;;;2.64;100.00;97339.88;5033171;28;20045;-59
2024/02/24 01:33:12;;;;;;;0.50;0.50;;;;;;;2.69;100.00;97338.13;5041665;28;20152;-60
2024/02/24 01:35:39;;;;;;;0.70;0.70;;;;;;;2.64;100.00;97340.66;5027871;28;20081;-59
2024/02/24 01:38:08;;;;;;;0.60;0.60;;;;;;;2.76;100.00;97338.78;5027623;28;20175;-60
2024/02/24 01:40:36;;;;;;;0.60;0.60;;;;;;;2.83;100.00;97343.13;5033084;28;20080;-59
2024/02/24 01:43:03;;;;;;;0.60;0.60;;;;;;;2.98;100.00;97352.13;5033007;28;20131;-59
2024/02/24 01:45:33;;;;;;;0.60;0.60;;;;;;;3.09;100.00;97347.78;5032825;28;20127;-59
2024/02/24 01:48:01;;;;;;;0.68;0.68;;;;;;;3.16;100.00;97342.34;5026556;28;20499;-59
2024/02/24 01:50:28;;;;;;;0.60;0.60;;;;;;;3.05;100.00;97330.00;5031077;28;20076;-59
2024/02/24 01:52:55;;;;;;;0.50;0.50;;;;;;;3.13;100.00;97335.69;5034706;28;20045;-59
2024/02/24 01:55:22;;;;;;;0.60;0.60;;;;;;;3.06;100.00;97332.38;5026303;28;20072;-59
2024/02/24 01:57:50;;;;;;;0.60;0.60;;;;;;;3.16;100.00;97332.56;5033334;28;20039;-59
2024/02/24 02:00:18;;;;;;;0.52;0.52;;;;;;;3.27;100.00;97330.06;5034526;28;20042;-59
2024/02/24 02:02:45;;;;;;;0.50;0.50;;;;;;;3.26;100.00;97341.69;5034444;28;20199;-59
2024/02/24 02:05:13;;;;;;;0.50;0.50;;;;;;;3.30;100.00;97333.03;5027283;28;20041;-59
2024/02/24 02:07:40;;;;;;;0.70;0.70;;;;;;;3.43;100.00;97342.50;5031627;28;20052;-59
2024/02/24 02:10:08;;;;;;;0.50;0.50;;;;;;;3.38;100.00;97342.44;5036522;28;20052;-59
2024/02/24 02:12:35;;;;;;;0.52;0.52;;;;;;;3.35;100.00;97340.25;5034290;28;20257;-59
2024/02/24 02:15:05;;;;;;;0.50;0.50;;;;;;;3.42;100.00;97340.88;5031350;28;20106;-59
2024/02/24 02:17:33;;;;;;;0.40;0.40;;;;;;;3.38;100.00;97337.13;5024109;28;20500;-59
2024/02/24 02:20:01;;;;;;;0.50;0.50;;;;;;;3.36;100.00;97344.50;5031750;28;20149;-59
2024/02/24 02:22:30;;;;;;;0.60;0.60;;;;;;;3.50;100.00;97337.03;5037526;28;20498;-59
2024/02/24 02:24:57;;;;;;;0.50;0.50;;;;;;;3.42;100.00;97347.00;5032525;28;20461;-59
2024/02/24 02:27:24;;;;;;;0.60;0.60;;;;;;;3.39;100.00;97350.09;5032029;28;20064;-59
2024/02/24 02:29:51;;;;;;;0.50;0.50;;;;;;;3.42;100.00;97346.16;5030591;28;20049;-59
2024/02/24 02:32:18;;;;;;;0.50;0.50;;;;;;;3.38;100.00;97345.06;5030150;28;20049;-59
2024/02/24 02:34:45;;;;;;;0.50;0.50;;;;;;;3.40;100.00;97337.69;5030893;28;20049;-59
2024/02/24 02:37:12;;;;;;;0.50;0.50;;;;;;;3.58;100.00;97333.97;5032841;28;20560;-59
2024/02/24 02:39:41;;;;;;;0.50;0.50;;;;;;;3.54;100.00;97338.94;5043880;28;20072;-59
2024/02/24 02:42:08;;;;;;;0.50;0.50;;;;;;;3.50;100.00;97337.03;5039098;28;20213;-59
2024/02/24 02:44:35;;;;;;;0.45;0.45;;;;;;;3.51;100.00;97339.44;5036103;28;20496;-59
2024/02/24 02:47:03;;;;;;;0.47;0.47;;;;;;;3.57;100.00;97332.34;5038764;28;20041;-59
2024/02/24 02:49:30;;;;;;;0.57;0.57;;;;;;;3.56;100.00;97333.41;5033520;28;20045;-59
2024/02/24 02:51:57;;;;;;;0.55;0.55;;;;;;;3.61;100.00;97328.97;5038431;28;20810;-59
2024/02/24 02:54:24;;;;;;;0.50;0.50;;;;;;;3.61;100.00;97322.88;5036360;28;20049;-59
2024/02/24 02:56:53;;;;;;;0.47;0.47;;;;;;;3.64;100.00;97323.22;5036104;28;20047;-59
2024/02/24 02:59:20;;;;;;;0.60;0.60;;;;;;;3.72;100.00;97329.94;5034610;28;20119;-59
2024/02/24 03:01:48;;;;;;;0.50;0.50;;;;;;;3.76;100.00;97330.25;5034900;28;20529;-59
2024/02/24 03:04:15;;;;;;;0.50;0.50;;;;;;;3.73;100.00;97330.72;5030970;28;20508;-59
2024/02/24 03:06:43;;;;;;;0.60;0.60;;;;;;;3.74;100.00;97333.13;5034377;28;20120;-59
2024/02/24 03:09:10;;;;;;;0.40;0.40;;;;;;;3.79;100.00;97333.19;5024042;28;20064;-59
2024/02/24 03:11:37;;;;;;;0.47;0.47;;;;;;;3.76;100.00;97335.53;5042380;28;20049;-59
2024/02/24 03:14:06;;;;;;;0.60;0.60;;;;;;;3.89;100.00;97332.53;5035531;28;20048;-60
2024/02/24 03:16:33;;;;;;;0.52;0.52;;;;;;;3.92;100.00;97345.31;5026351;28;20076;-60
2024/02/24 03:19:00;;;;;;;0.50;0.50;;;;;;;4.00;100.00;97352.81;5033060;28;20143;-59
2024/02/24 03:21:27;;;;;;;0.50;0.50;;;;;;;4.02;100.00;97345.44;5035728;28;20055;-59
2024/02/24 03:23:56;;;;;;;0.47;0.47;;;;;;;3.94;100.00;97359.09;5041061;28;20048;-59
2024/02/24 03:26:23;;;;;;;0.50;0.50;;;;;;;4.00;100.00;97355.47;5041390;28;20480;-59
2024/02/24 03:28:50;;;;;;;0.40;0.40;;;;;;;4.00;100.00;97355.47;5032080;28;20094;-59
2024/02/24 03:31:18;;;;;;;0.50;0.50;;;;;;;3.91;100.00;97354.28;5037445;28;20097;-59
2024/02/24 03:33:45;;;;;;;0.60;0.60;;;;;;;3.91;100.00;97354.28;5032555;28;20046;-59
2024/02/24 03:36:13;;;;;;;0.40;0.40;;;;;;;4.02;100.00;97361.34;5036700;28;20396;-59
2024/02/24 03:38:41;;;;;;;0.50;0.50;;;;;;;3.88;100.00;97363.53;5037861;28;20514;-59
2024/02/24 03:41:08;;;;;;;0.60;0.60;;;;;;;3.97;100.00;97357.81;5037973;28;20049;-59
2024/02/24 03:43:35;;;;;;;0.50;0.50;;;;;;;3.87;100.00;97359.28;5038007;28;20036;-59
2024/02/24 03:46:03;;;;;;;0.60;0.60;;;;;;;3.96;100.00;97356.22;5033957;28;20627;-59
2024/02/24 03:48:31;;;;;;;0.40;0.40;;;;;;;3.91;100.00;97364.88;5035158;28;20045;-59
2024/02/24 03:50:59;;;;;;;0.50;0.50;;;;;;;3.84;100.00;97356.31;5034126;28;20061;-59
2024/02/24 03:53:26;;;;;;;0.60;0.60;;;;;;;3.83;100.00;97362.66;5036817;28;20033;-59
2024/02/24 03:55:53;;;;;;;0.50;0.50;;;;;;;3.88;100.00;97362.72;5027567;28;20522;-59
2024/02/24 03:58:22;;;;;;;0.60;0.60;;;;;;;3.81;100.00;97367.41;5034943;28;20049;-59
2024/02/24 04:00:50;;;;;;;0.57;0.57;;;;;;;3.77;100.00;97374.22;5033136;28;20048;-59
2024/02/24 04:03:17;;;;;;;0.70;0.70;;;;;;;3.81;100.00;97364.75;5039842;28;20044;-59
2024/02/24 04:05:47;;;;;;;0.55;0.55;;;;;;;3.75;100.00;97379.00;5028322;28;20061;-59
2024/02/24 04:08:14;;;;;;;0.50;0.50;;;;;;;3.73;100.00;97384.53;5032899;28;20071;-59
2024/02/24 04:10:42;;;;;;;0.47;0.47;;;;;;;3.78;100.00;97378.50;5031203;28;20144;-59
2024/02/24 04:13:09;;;;;;;0.60;0.60;;;;;;;3.76;100.00;97377.94;5038282;28;20130;-59
2024/02/24 04:15:36;;;;;;;0.55;0.55;;;;;;;3.74;100.00;97380.03;5035357;28;20570;-59
2024/02/24 04:18:04;;;;;;;0.50;0.50;;;;;;;3.84;100.00;97381.00;5032812;28;20041;-59
2024/02/24 04:20:31;;;;;;;0.60;0.60;;;;;;;3.74;100.00;97385.31;5039321;28;20450;-60
2024/02/24 04:23:00;;;;;;;0.60;0.60;;;;;;;3.87;100.00;97383.16;5036854;28;20069;-59
2024/02/24 04:25:27;;;;;;;0.50;0.50;;;;;;;3.97;100.00;97382.47;5028874;28;20056;-59
2024/02/24 04:27:54;;;;;;;0.60;0.60;;;;;;;3.90;100.00;97389.81;5032345;28;20050;-59
2024/02/24 04:30:21;;;;;;;0.50;0.50;;;;;;;3.78;100.00;97389.91;5035728;28;20080;-59
2024/02/24 04:32:48;;;;;;;0.55;0.55;;;;;;;3.79;100.00;97394.13;5032983;28;20045;-59
2024/02/24 04:35:15;;;;;;;0.50;0.50;;;;;;;3.86;100.00;97386.81;5036091;28;20119;-59
2024/02/24 04:37:42;;;;;;;0.60;0.60;;;;;;;3.83;100.00;97389.97;5043079;28;20118;-59
2024/02/24 04:40:10;;;;;;;0.60;0.60;;;;;;;3.78;100.00;97391.75;5018477;28;20049;-59
2024/02/24 04:42:37;;;;;;;0.50;0.50;;;;;;;3.75;100.00;97385.09;5036974;28;20055;-59
2024/02/24 04:45:05;;;;;;;0.50;0.50;;;;;;;3.87;100.00;97382.34;5035343;28;20048;-59
2024/02/24 04:47:32;;;;;;;0.63;0.63;;;;;;;3.84;100.00;97393.41;5035630;28;20045;-59
2024/02/24 04:50:00;;;;;;;0.50;0.50;;;;;;;4.03;100.00;97392.09;5038579;28;20047;-59
2024/02/24 04:52:27;;;;;;;0.40;0.40;;;;;;;3.98;100.00;97399.19;5029319;28;20049;-59
2024/02/24 04:54:54;;;;;;;0.38;0.38;;;;;;;3.87;100.00;97398.25;5028895;28;20049;-59
2024/02/24 04:57:23;;;;;;;0.60;0.60;;;;;;;3.87;100.00;97391.09;5039828;28;20083;-59
2024/02/24 04:59:50;;;;;;;0.50;0.50;;;;;;;3.85;100.00;97397.69;5038790;28;20547;-59
2024/02/24 05:02:17;;;;;;;0.50;0.50;;;;;;;3.89;100.00;97401.44;5039174;28;20061;-59
2024/02/24 05:04:44;;;;;;;0.50;0.50;;;;;;;3.89;100.00;97402.25;5028622;28;20045;-59
2024/02/24 05:07:12;;;;;;;0.40;0.40;;;;;;;3.85;100.00;97398.47;5028943;28;20141;-59
2024/02/24 05:09:40;;;;;;;0.50;0.50;;;;;;;3.79;100.00;97406.59;5032241;28;20057;-59
2024/02/24 05:12:07;;;;;;;0.40;0.40;;;;;;;3.70;100.00;97400.91;5038564;28;20051;-59
2024/02/24 05:14:37;;;;;;;0.60;0.60;;;;;;;3.59;100.00;97410.53;5033044;28;20136;-59
2024/02/24 05:17:07;;;;;;;0.50;0.50;;;;;;;3.62;100.00;97419.84;5027859;28;20068;-59
2024/02/24 05:19:34;;;;;;;0.50;0.50;;;;;;;3.70;100.00;97413.38;5041887;28;20502;-59
2024/02/24 05:22:01;;;;;;;0.60;0.60;;;;;;;3.51;100.00;97424.19;5034157;28;20037;-59
2024/02/24 05:24:28;;;;;;;0.50;0.50;;;;;;;3.50;100.00;97425.25;5032477;28;20096;-59
2024/02/24 05:26:55;;;;;;;0.60;0.60;;;;;;;3.52;100.00;97428.47;5031022;28;20110;-59
2024/02/24 05:29:22;;;;;;;0.60;0.60;;;;;;;3.64;100.00;97429.19;5037770;28;20048;-59
2024/02/24 05:31:51;;;;;;;0.50;0.50;;;;;;;3.67;100.00;97430.56;5036625;28;20514;-59
2024/02/24 05:34:18;;;;;;;0.50;0.50;;;;;;;3.72;100.00;97427.16;5033014;28;20052;-59
2024/02/24 05:36:45;;;;;;;0.50;0.50;;;;;;;3.73;100.00;97426.91;5033820;28;20075;-59
2024/02/24 05:39:12;;;;;;;0.60;0.60;;;;;;;3.77;100.00;97435.19;5037027;28;20049;-59
2024/02/24 05:41:39;;;;;;;0.50;0.50;;;;;;;3.76;100.00;97433.59;5028414;28;20054;-59
2024/02/24 05:44:09;;;;;;;0.50;0.50;;;;;;;3.71;100.00;97430.84;5034222;28;20138;-59
2024/02/24 05:46:38;;;;;;;0.60;0.60;;;;;;;3.71;100.00;97436.94;5033498;28;20107;-59
2024/02/24 05:49:06;;;;;;;0.52;0.52;;;;;;;3.76;100.00;97433.59;5031335;28;20057;-59
2024/02/24 05:51:36;;;;;;;0.52;0.52;;;;;;;3.79;100.00;97438.41;5034501;28;20102;-59
2024/02/24 05:54:04;;;;;;;0.57;0.57;;;;;;;3.75;100.00;97439.94;5033188;28;20056;-59
2024/02/24 05:56:31;;;;;;;0.40;0.40;;;;;;;3.77;100.00;97440.47;5030687;28;20161;-59
2024/02/24 05:58:58;;;;;;;0.57;0.57;;;;;;;3.74;100.00;97438.31;5037221;28;20049;-60
2024/02/24 06:01:25;;;;;;;0.60;0.60;;;;;;;3.75;100.00;97445.25;5033943;28;20045;-59
2024/02/24 06:03:53;;;;;;;0.40;0.40;;;;;;;3.79;100.00;97454.28;5039425;28;20041;-59
2024/02/24 06:06:21;;;;;;;0.60;0.60;;;;;;;3.78;100.00;97450.03;5032233;28;20127;-59
2024/02/24 06:08:48;;;;;;;0.50;0.50;;;;;;;3.85;100.00;97456.78;5029905;28;20045;-59
2024/02/24 06:11:15;;;;;;;0.60;0.60;;;;;;;3.81;100.00;97449.56;5030127;28;20041;-59
2024/02/24 06:13:42;;;;;;;0.50;0.50;;;;;;;3.75;100.00;97455.84;5037505;28;20495;-59
2024/02/24 06:16:10;;;;;;;0.47;0.47;;;;;;;3.66;100.00;97458.88;5041565;28;20085;-59
2024/02/24 06:18:37;;;;;;;0.60;0.60;;;;;;;3.82;100.00;97461.75;5032794;28;20061;-59
2024/02/24 06:21:04;;;;;;;0.60;0.60;;;;;;;3.79;100.00;97465.69;5037807;28;20061;-59
2024/02/24 06:23:32;;;;;;;0.45;0.45;;;;;;;3.75;100.00;97467.22;5038370;28;20069;-59
2024/02/24 06:26:00;;;;;;;0.60;0.60;;;;;;;3.68;100.00;97472.69;5036539;28;20045;-59
2024/02/24 06:28:27;;;;;;;0.60;0.60;;;;;;;3.67;100.00;97471.09;5041976;28;20065;-59
2024/02/24 06:30:54;;;;;;;0.50;0.50;;;;;;;3.66;100.00;97469.47;5035199;28;20091;-59
2024/02/24 06:33:21;;;;;;;0.60;0.60;;;;;;;3.68;100.00;97472.69;5038850;28;20132;-59
2024/02/24 06:35:48;;;;;;;0.50;0.50;;;;;;;3.66;100.00;97480.06;5018953;28;20047;-59
2024/02/24 06:38:15;;;;;;;0.40;0.40;;;;;;;3.70;100.00;97476.97;5034019;28;20440;-59
2024/02/24 06:40:44;;;;;;;0.60;0.60;;;;;;;3.70;100.00;97479.59;5040783;28;20126;-59
2024/02/24 06:43:11;;;;;;;0.60;0.60;;;;;;;3.74;100.00;97483.38;5041557;28;20043;-59
2024/02/24 06:45:38;;;;;;;0.60;0.60;;;;;;;3.73;100.00;97484.41;5033947;28;20210;-59
2024/02/24 06:48:06;;;;;;;0.50;0.50;;;;;;;3.69;100.00;97481.44;5038397;28;20132;-59
2024/02/24 06:50:33;;;;;;;0.45;0.45;;;;;;;3.88;100.00;97482.81;5039260;28;20496;-59
2024/02/24 06:53:02;;;;;;;0.50;0.50;;;;;;;3.78;100.00;97490.59;5033723;28;20072;-59
2024/02/24 06:55:29;;;;;;;0.60;0.60;;;;;;;3.68;100.00;97482.50;5045512;28;20152;-59
2024/02/24 06:57:58;;;;;;;0.47;0.47;;;;;;;3.98;100.00;97491.97;5038642;28;20449;-59
2024/02/24 07:00:25;;;;;;;0.50;0.50;;;;;;;3.84;100.00;97497.59;5031840;28;20041;-59
2024/02/24 07:02:53;;;;;;;0.50;0.50;;;;;;;3.87;100.00;97507.72;5032307;28;20121;-59
2024/02/24 07:05:20;;;;;;;0.47;0.47;;;;;;;4.00;100.00;97506.59;5039227;28;20049;-59
2024/02/24 07:07:47;;;;;;;0.40;0.40;;;;;;;3.83;100.00;97513.72;5039181;28;20041;-59
2024/02/24 07:10:14;;;;;;;0.50;0.50;;;;;;;3.84;100.00;97510.03;5033031;28;20516;-59
2024/02/24 07:12:41;;;;;;;0.60;0.60;;;;;;;4.16;100.00;97520.06;5046412;28;20048;-59
2024/02/24 07:15:11;;;;;;;0.47;0.47;;;;;;;3.94;100.00;97518.13;5041452;28;20465;-59
2024/02/24 07:17:38;;;;;;;0.60;0.60;;;;;;;4.00;100.00;97521.69;5036806;28;20056;-59
2024/02/24 07:20:06;;;;;;;0.40;0.40;;;;;;;3.94;100.00;97523.44;5041533;28;20040;-59
2024/02/24 07:22:36;;;;;;;0.50;0.50;;;;;;;3.98;100.00;97521.91;5038732;28;20080;-59
2024/02/24 07:25:04;;;;;;;0.60;0.60;;;;;;;4.09;100.00;97536.94;5040067;28;20044;-60
2024/02/24 07:27:33;;;;;;;0.50;0.50;;;;;;;4.03;100.00;97535.25;5034757;28;20041;-59
2024/02/24 07:30:03;;;;;;;0.50;0.50;;;;;;;4.01;100.00;97542.63;5036827;28;20045;-60
2024/02/24 07:32:33;;;;;;;0.60;0.60;;;;;;;3.95;100.00;97551.56;5033811;28;20391;-60
2024/02/24 07:35:04;;;;;;;0.50;0.50;;;;;;;4.25;100.00;97548.59;5041911;28;20455;-59
2024/02/24 07:37:31;;;;;;;0.40;0.40;;;;;;;4.20;100.00;97558.31;5034572;28;20059;-59
2024/02/24 07:39:58;;;;;;;0.50;0.50;;;;;;;4.04;100.00;97575.81;5031267;28;20045;-59
2024/02/24 07:42:25;;;;;;;0.40;0.40;;;;;;;3.99;100.00;97579.19;5037232;28;20041;-60
2024/02/24 07:44:52;;;;;;;0.50;0.50;;;;;;;4.08;100.00;97593.66;5042766;28;20446;-59
2024/02/24 07:47:20;;;;;;;0.57;0.57;;;;;;;4.17;100.00;97596.72;5024876;28;20536;-59
2024/02/24 07:49:48;;;;;;;0.50;0.50;;;;;;;3.86;100.00;97600.72;5041277;28;20487;-59
2024/02/24 07:52:15;;;;;;;0.50;0.50;;;;;;;4.08;100.00;97608.78;5033132;28;20091;-59
2024/02/24 07:54:43;;;;;;;0.52;0.52;;;;;;;4.25;100.00;97608.78;5039692;28;20068;-59
2024/02/24 07:57:10;;;;;;;0.50;0.50;;;;;;;4.83;100.00;97620.78;5036352;28;20045;-59
2024/02/24 07:59:37;;;;;;;0.60;0.60;;;;;;;5.04;100.00;97615.75;5039942;28;20128;-59
2024/02/24 08:02:04;;;;;;;0.40;0.40;;;;;;;4.51;100.00;97618.72;5028958;28;20128;-59
2024/02/24 08:04:31;;;;;;;0.63;0.63;;;;;;;4.66;100.00;97638.59;5030498;28;20559;-59
2024/02/24 08:06:59;;;;;;;0.55;0.55;;;;;;;4.55;100.00;97629.69;5038083;28;20044;-59
2024/02/24 08:09:26;;;;;;;0.50;0.50;;;;;;;4.57;100.00;97634.72;5042277;28;20041;-59
2024/02/24 08:11:54;;;;;;;0.55;0.55;;;;;;;4.88;100.00;97643.94;5032809;28;20052;-59
2024/02/24 08:14:21;;;;;;;0.60;0.60;;;;;;;4.95;100.00;97639.28;5029297;28;20175;-59
2024/02/24 08:16:48;;;;;;;0.43;0.43;;;;;;;4.85;100.00;97644.44;5041082;28;20825;-57
2024/02/24 08:19:16;;;;;;;0.55;0.55;;;;;;;5.06;100.00;97653.47;5045560;28;20046;-59
2024/02/24 08:21:43;;;;;;;0.50;0.50;;;;;;;4.80;100.00;97652.34;5027192;28;20127;-59
2024/02/24 08:24:16;;;;;;;0.50;0.50;;;;;;;4.89;100.00;97650.84;5026746;28;20130;-60
2024/02/24 08:26:45;;;;;;;0.47;0.47;;;;;;;4.60;100.00;97668.75;5031630;28;20056;-58
2024/02/24 08:29:12;;;;;;;0.40;0.40;;;;;;;4.42;100.00;97669.78;5036575;28;20132;-57
2024/02/24 08:31:39;;;;;;;0.50;0.50;;;;;;;4.60;100.00;97676.72;5034990;28;20075;-58
2024/02/24 08:34:06;;;;;;;0.60;0.60;;;;;;;4.60;100.00;97679.38;5032360;28;20131;-58
2024/02/24 08:36:33;;;;;;;0.50;0.50;;;;;;;4.59;100.00;97685.72;5028505;28;20152;-58
2024/02/24 08:39:00;;;;;;;0.50;0.50;;;;;;;4.20;100.00;97675.81;5042176;28;20120;-57
2024/02/24 08:41:31;;;;;;;0.50;0.50;;;;;;;4.32;100.00;97684.50;5036787;28;20045;-58
2024/02/24 08:43:58;;;;;;;0.40;0.40;;;;;;;4.41;100.00;97684.91;5035425;28;20099;-59
2024/02/24 08:46:25;;;;;;;0.60;0.60;;;;;;;4.50;100.00;97695.94;5025808;28;20502;-59
2024/02/24 08:48:54;;;;;;;0.40;0.40;;;;;;;4.63;100.00;97700.13;5033691;28;20137;-58
2024/02/24 08:51:21;;;;;;;0.50;0.50;;;;;;;4.49;100.00;97699.59;5025905;28;20056;-59
2024/02/24 08:53:48;;;;;;;0.40;0.40;;;;;;;4.22;100.00;97715.31;5030703;28;20640;-59
2024/02/24 08:56:19;;;;;;;0.40;0.40;;;;;;;4.35;100.00;97712.41;5032538;28;20049;-58
2024/02/24 08:58:47;;;;;;;0.50;0.50;;;;;;;4.62;100.00;97714.41;5033909;28;20503;-58
2024/02/24 09:01:15;;;;;;;0.50;0.50;;;;;;;4.51;100.00;97730.16;5028949;28;20500;-59
2024/02/24 09:03:42;;;;;;;0.50;0.50;;;;;;;4.20;100.00;97728.03;5028428;28;20051;-58
2024/02/24 09:06:09;;;;;;;0.47;0.47;;;;;;;4.70;100.00;97732.59;5038021;28;20156;-58
2024/02/24 09:08:37;;;;;;;0.40;0.40;;;;;;;4.82;100.00;97736.00;5034127;28;20237;-58
2024/02/24 09:11:05;;;;;;;0.50;0.50;;;;;;;4.84;100.00;97736.56;5033140;28;20048;-59
2024/02/24 09:13:32;;;;;;;0.50;0.50;;;;;;;4.93;100.00;97737.75;5033982;28;20150;-58
2024/02/24 09:16:00;;;;;;;0.40;0.40;;;;;;;4.94;100.00;97738.53;5036161;28;20048;-59
2024/02/24 09:18:28;;;;;;;0.50;0.50;;;;;;;4.97;100.00;97733.56;5024319;28;20152;-58
2024/02/24 09:20:55;;;;;;;0.43;0.43;;;;;;;4.88;100.00;97745.63;5029597;28;20546;-58
2024/02/24 09:23:22;;;;;;;0.50;0.50;;;;;;;4.76;100.00;97742.25;5027332;28;20095;-59
2024/02/24 09:25:49;;;;;;;0.50;0.50;;;;;;;4.71;100.00;97750.94;5037368;28;20480;-58
2024/02/24 09:28:16;;;;;;;0.40;0.40;;;;;;;4.79;100.00;97755.03;5035664;28;20095;-59
2024/02/24 09:30:45;;;;;;;0.50;0.50;;;;;;;4.82;100.00;97757.22;5033130;28;20059;-59
2024/02/24 09:33:13;;;;;;;0.70;0.70;;;;;;;5.07;100.00;97761.34;5028865;28;20048;-58
2024/02/24 09:35:40;;;;;;;0.50;0.50;;;;;;;6.36;100.00;97770.69;5033744;28;20044;-58
2024/02/24 09:38:07;;;;;;;0.40;0.40;;;;;;;5.92;100.00;97775.25;5030179;28;20214;-58
2024/02/24 09:40:34;;;;;;;0.52;0.52;;;;;;;6.61;100.00;97767.47;5038468;28;20103;-58
2024/02/24 09:43:03;;;;;;;0.50;0.50;;;;;;;8.53;94.73;97779.78;5024172;28;20124;-58
2024/02/24 09:45:34;;;;;;;0.50;0.50;;;;;;;7.60;93.90;97783.16;5030431;28;20177;-58
2024/02/24 09:48:01;;;;;;;0.40;0.40;;;;;;;6.98;88.31;97784.59;5028670;28;20072;-58
2024/02/24 09:50:31;;;;;;;0.40;0.40;;;;;;;7.32;90.08;97777.13;5029022;28;20047;-58
2024/02/24 09:52:58;;;;;;;0.40;0.40;;;;;;;8.08;86.93;97789.22;5030763;28;20340;-58
2024/02/24 09:55:25;;;;;;;0.40;0.40;;;;;;;8.32;84.61;97789.59;5031841;28;20053;-58
2024/02/24 09:57:57;;;;;;;0.43;0.43;;;;;;;8.92;80.77;97781.97;5034544;28;20063;-59
2024/02/24 10:00:24;;;;;;;0.30;0.30;;;;;;;8.15;82.92;97797.81;5027695;28;20061;-58
2024/02/24 10:02:52;;;;;;;0.32;0.32;;;;;;;6.96;89.34;97795.47;5048920;28;20132;-58
2024/02/24 10:05:19;;;;;;;0.20;0.20;;;;;;;6.38;86.34;97799.72;5031626;28;20136;-58
2024/02/24 10:07:47;;;;;;;0.30;0.30;;;;;;;6.28;91.95;97818.25;5031481;28;20052;-58
2024/02/24 10:10:16;;;;;;;0.35;0.35;;;;;;;6.43;91.49;97813.09;5035204;28;20046;-58
2024/02/24 10:12:56;;;;;;;0.40;0.40;;;;;;;5.99;91.75;97821.06;5032069;28;20556;-58
2024/02/24 10:15:26;;;;;;;0.40;0.40;;;;;;;6.08;93.21;97816.94;5039795;28;20098;-58
2024/02/24 10:17:54;;;;;;;0.30;0.30;;;;;;;6.16;95.70;97824.47;5044665;28;20041;-58
2024/02/24 10:20:21;;;;;;;0.32;0.32;;;;;;;5.96;95.05;97826.91;5035255;28;20144;-58
2024/02/24 10:22:50;;;;;;;0.40;0.40;;;;;;;5.79;96.80;97835.72;5033139;28;20049;-59
2024/02/24 10:25:17;;;;;;;0.40;0.40;;;;;;;5.71;95.97;97830.78;5009247;28;20403;-59
2024/02/24 10:27:45;;;;;;;0.38;0.38;;;;;;;5.60;98.33;97839.69;5029924;28;20045;-59
2024/02/24 10:30:12;;;;;;;0.40;0.40;;;;;;;5.14;100.00;97839.78;5036114;28;20140;-59
2024/02/24 10:32:39;;;;;;;0.40;0.40;;;;;;;4.84;100.00;97858.69;5030383;28;20948;-59
2024/02/24 10:35:08;;;;;;;0.50;0.50;;;;;;;4.87;100.00;97855.53;5032110;28;20065;-59
2024/02/24 10:37:35;;;;;;;0.50;0.50;;;;;;;4.67;100.00;97869.25;5023634;28;20041;-59
2024/02/24 10:40:04;;;;;;;0.40;0.40;;;;;;;4.25;100.00;97868.69;5038677;28;20566;-59
2024/02/24 10:42:32;;;;;;;0.50;0.50;;;;;;;4.27;100.00;97875.38;5030962;28;20049;-59
2024/02/24 10:44:59;;;;;;;0.50;0.50;;;;;;;3.93;100.00;97887.66;5033648;28;20098;-59
2024/02/24 10:47:27;;;;;;;0.50;0.50;;;;;;;3.79;100.00;97883.63;5030662;28;20075;-59
2024/02/24 10:49:54;;;;;;;0.50;0.50;;;;;;;3.66;100.00;97876.72;5028354;28;20115;-59
2024/02/24 10:52:22;;;;;;;0.60;0.60;;;;;;;3.32;100.00;97881.78;5030743;28;20041;-59
2024/02/24 10:54:49;;;;;;;0.70;0.70;;;;;;;3.78;100.00;97882.81;5030833;28;20040;-59
2024/02/24 10:57:18;;;;;;;0.60;0.60;;;;;;;3.64;100.00;97874.31;5027337;28;20065;-59
2024/02/24 10:59:45;;;;;;;0.52;0.52;;;;;;;3.86;100.00;97886.97;5032284;28;20443;-59
2024/02/24 11:02:13;;;;;;;0.40;0.40;;;;;;;3.77;100.00;97880.38;5034178;28;20111;-59
2024/02/24 11:04:40;;;;;;;0.50;0.50;;;;;;;3.95;100.00;97880.28;5031813;28;20052;-59
2024/02/24 11:07:08;;;;;;;0.60;0.60;;;;;;;4.28;100.00;97884.13;5030027;28;20466;-59
2024/02/24 11:09:35;;;;;;;0.50;0.50;;;;;;;4.38;100.00;97879.03;5026565;28;20053;-59
2024/02/24 11:12:04;;;;;;;0.40;0.40;;;;;;;4.89;100.00;97872.03;5037002;28;20044;-59
2024/02/24 11:14:32;;;;;;;0.55;0.55;;;;;;;5.68;100.00;97876.47;5032793;28;20041;-59
2024/02/24 11:17:00;;;;;;;0.50;0.50;;;;;;;6.07;100.00;97867.75;5036156;28;20135;-60
2024/02/24 11:19:45;;;;;;;0.52;0.52;;;;;;;6.41;100.00;97879.06;5027881;28;20136;-59
2024/02/24 11:22:19;;;;;;;0.40;0.40;;;;;;;6.51;100.00;97871.19;5034024;28;20048;-59
2024/02/24 11:24:46;;;;;;;0.50;0.50;;;;;;;6.45;96.59;97870.34;5037845;28;20753;-59
2024/02/24 11:27:14;;;;;;;0.40;0.40;;;;;;;6.64;95.12;97883.31;5039555;28;20106;-59
2024/02/24 11:29:43;;;;;;;0.45;0.45;;;;;;;6.45;92.49;97874.88;5030004;28;20403;-59
2024/02/24 11:32:12;;;;;;;0.50;0.50;;;;;;;6.20;97.28;97888.66;5033577;28;20112;-59
2024/02/24 11:34:42;;;;;;;0.30;0.30;;;;;;;5.37;97.75;97885.84;5039363;28;20129;-59
2024/02/24 11:37:09;;;;;;;0.30;0.30;;;;;;;5.71;100.00;97883.16;5028368;28;20041;-61